sensor_id;sensor_type;location;lat;lon;timestamp;temperature;humidity
19085;DHT22;9675;51.538;6.728;2022-10-03T00:02:39;14.00;99.90
19085;DHT22;9675;51.538;6.728;2022-10-03T00:05:35;14.00;99.90
19085;DHT22;9675;51.538;6.728;2022-10-03T00:08:17;14.00;99.90
19085;DHT22;9675;51.538;6.728;2022-10-03T00:11:04;14.00;99.90
19085;DHT22;9675;51.538;6.728;2022-10-03T00:13:42;14.00;99.90
19085;DHT22;9675;51.538;6.728;2022-10-03T00:16:21;13.90;99.90
19085;DHT22;9675;51.538;6.728;2022-10-03T00:19:07;13.90;99.90
19085;DHT22;9675;51.538;6.728;2022-10-03T00:21:56;13.90;99.90
19085;DHT22;9675;51.538;6.728;2022-10-03T00:24:44;13.80;99.90
19085;DHT22;9675;51.538;6.728;2022-10-03T00:27:32;13.80;99.90
19085;DHT22;9675;51.538;6.728;2022-10-03T00:30:18;13.80;99.90
19085;DHT22;9675;51.538;6.728;2022-10-03T00:33:03;13.80;99.90
19085;DHT22;9675;51.538;6.728;2022-10-03T00:35:54;13.70;99.90
19085;DHT22;9675;51.538;6.728;2022-10-03T00:38:41;13.70;99.90
19085;DHT22;9675;51.538;6.728;2022-10-03T00:41:34;13.70;99.90
19085;DHT22;9675;51.538;6.728;2022-10-03T00:44:49;13.70;99.90
19085;DHT22;9675;51.538;6.728;2022-10-03T00:48:05;13.70;99.90
19085;DHT22;9675;51.538;6.728;2022-10-03T00:51:00;13.60;99.90
19085;DHT22;9675;51.538;6.728;2022-10-03T00:53:54;13.60;99.90
19085;DHT22;9675;51.538;6.728;2022-10-03T00:56:52;13.60;99.90
19085;DHT22;9675;51.538;6.728;2022-10-03T00:59:42;13.60;99.90
19085;DHT22;9675;51.538;6.728;2022-10-03T01:02:33;13.60;99.90
19085;DHT22;9675;51.538;6.728;2022-10-03T01:05:20;13.60;99.90
19085;DHT22;9675;51.538;6.728;2022-10-03T01:11:33;13.60;99.90
19085;DHT22;9675;51.538;6.728;2022-10-03T01:14:27;13.50;99.90
19085;DHT22;9675;51.538;6.728;2022-10-03T01:17:15;13.50;99.90
19085;DHT22;9675;51.538;6.728;2022-10-03T01:20:08;13.50;99.90
19085;DHT22;9675;51.538;6.728;2022-10-03T01:22:58;13.50;99.90
19085;DHT22;9675;51.538;6.728;2022-10-03T01:25:39;13.50;99.90
19085;DHT22;9675;51.538;6.728;2022-10-03T01:28:44;13.40;99.90
19085;DHT22;9675;51.538;6.728;2022-10-03T01:31:39;13.40;99.90
19085;DHT22;9675;51.538;6.728;2022-10-03T01:34:19;13.40;99.90
19085;DHT22;9675;51.538;6.728;2022-10-03T01:36:59;13.40;99.90
19085;DHT22;9675;51.538;6.728;2022-10-03T01:39:39;13.40;99.90
19085;DHT22;9675;51.538;6.728;2022-10-03T01:42:16;13.40;99.90
19085;DHT22;9675;51.538;6.728;2022-10-03T01:45:08;13.30;99.90
19085;DHT22;9675;51.538;6.728;2022-10-03T01:47:45;13.30;99.90
19085;DHT22;9675;51.538;6.728;2022-10-03T01:50:22;13.30;99.90
19085;DHT22;9675;51.538;6.728;2022-10-03T01:52:59;13.30;99.90
19085;DHT22;9675;51.538;6.728;2022-10-03T01:55:38;13.30;99.90
19085;DHT22;9675;51.538;6.728;2022-10-03T01:58:21;13.20;99.90
19085;DHT22;9675;51.538;6.728;2022-10-03T02:01:03;13.20;99.90
19085;DHT22;9675;51.538;6.728;2022-10-03T02:03:38;13.20;99.90
19085;DHT22;9675;51.538;6.728;2022-10-03T02:06:20;13.20;99.90
19085;DHT22;9675;51.538;6.728;2022-10-03T02:09:00;13.20;99.90
19085;DHT22;9675;51.538;6.728;2022-10-03T02:11:37;13.20;99.90
19085;DHT22;9675;51.538;6.728;2022-10-03T02:14:22;13.10;99.90
19085;DHT22;9675;51.538;6.728;2022-10-03T02:17:00;13.10;99.90
19085;DHT22;9675;51.538;6.728;2022-10-03T02:19:40;13.10;99.90
19085;DHT22;9675;51.538;6.728;2022-10-03T02:22:15;13.10;99.90
19085;DHT22;9675;51.538;6.728;2022-10-03T02:25:07;13.00;99.90
19085;DHT22;9675;51.538;6.728;2022-10-03T02:31:42;13.00;99.90
19085;DHT22;9675;51.538;6.728;2022-10-03T02:34:46;13.00;99.90
19085;DHT22;9675;51.538;6.728;2022-10-03T02:41:12;12.90;99.90
19085;DHT22;9675;51.538;6.728;2022-10-03T02:44:34;12.90;99.90
19085;DHT22;9675;51.538;6.728;2022-10-03T02:54:36;12.90;99.90
19085;DHT22;9675;51.538;6.728;2022-10-03T03:01:46;12.80;99.90
19085;DHT22;9675;51.538;6.728;2022-10-03T03:04:52;12.80;99.90
19085;DHT22;9675;51.538;6.728;2022-10-03T03:07:54;12.80;99.90
19085;DHT22;9675;51.538;6.728;2022-10-03T03:11:08;12.70;99.90
19085;DHT22;9675;51.538;6.728;2022-10-03T03:14:18;12.70;99.90
19085;DHT22;9675;51.538;6.728;2022-10-03T03:17:16;12.70;99.90
19085;DHT22;9675;51.538;6.728;2022-10-03T03:20:21;12.70;99.90
19085;DHT22;9675;51.538;6.728;2022-10-03T03:23:15;12.70;99.90
19085;DHT22;9675;51.538;6.728;2022-10-03T03:26:15;12.70;99.90
19085;DHT22;9675;51.538;6.728;2022-10-03T03:29:01;12.70;99.90
19085;DHT22;9675;51.538;6.728;2022-10-03T03:31:45;12.60;99.90
19085;DHT22;9675;51.538;6.728;2022-10-03T03:34:26;12.60;99.90
19085;DHT22;9675;51.538;6.728;2022-10-03T03:37:03;12.60;99.90
19085;DHT22;9675;51.538;6.728;2022-10-03T03:39:51;12.60;99.90
19085;DHT22;9675;51.538;6.728;2022-10-03T03:43:00;12.50;99.90
19085;DHT22;9675;51.538;6.728;2022-10-03T03:45:58;12.50;99.90
19085;DHT22;9675;51.538;6.728;2022-10-03T03:51:46;12.50;99.90
19085;DHT22;9675;51.538;6.728;2022-10-03T03:54:42;12.50;99.90
19085;DHT22;9675;51.538;6.728;2022-10-03T03:57:50;12.40;99.90
19085;DHT22;9675;51.538;6.728;2022-10-03T04:03:41;12.40;99.90
19085;DHT22;9675;51.538;6.728;2022-10-03T04:06:32;12.40;99.90
19085;DHT22;9675;51.538;6.728;2022-10-03T04:09:41;12.40;99.90
19085;DHT22;9675;51.538;6.728;2022-10-03T04:12:36;12.40;99.90
19085;DHT22;9675;51.538;6.728;2022-10-03T04:15:35;12.40;99.90
19085;DHT22;9675;51.538;6.728;2022-10-03T04:18:26;12.30;99.90
19085;DHT22;9675;51.538;6.728;2022-10-03T04:21:50;12.30;99.90
19085;DHT22;9675;51.538;6.728;2022-10-03T04:24:44;12.30;99.90
19085;DHT22;9675;51.538;6.728;2022-10-03T04:28:07;12.20;99.90
19085;DHT22;9675;51.538;6.728;2022-10-03T04:31:03;12.20;99.90
19085;DHT22;9675;51.538;6.728;2022-10-03T04:33:59;12.20;99.90
19085;DHT22;9675;51.538;6.728;2022-10-03T04:37:00;12.20;99.90
19085;DHT22;9675;51.538;6.728;2022-10-03T04:39:45;12.20;99.90
19085;DHT22;9675;51.538;6.728;2022-10-03T04:42:29;12.20;99.90
19085;DHT22;9675;51.538;6.728;2022-10-03T04:45:24;12.20;99.90
19085;DHT22;9675;51.538;6.728;2022-10-03T04:48:12;12.20;99.90
19085;DHT22;9675;51.538;6.728;2022-10-03T04:50:46;12.20;99.90
19085;DHT22;9675;51.538;6.728;2022-10-03T04:53:33;12.10;99.90
19085;DHT22;9675;51.538;6.728;2022-10-03T04:56:19;12.20;99.90
19085;DHT22;9675;51.538;6.728;2022-10-03T04:59:18;12.10;99.90
19085;DHT22;9675;51.538;6.728;2022-10-03T05:01:56;12.10;99.90
19085;DHT22;9675;51.538;6.728;2022-10-03T05:04:31;12.10;99.90
19085;DHT22;9675;51.538;6.728;2022-10-03T05:07:12;12.10;99.90
19085;DHT22;9675;51.538;6.728;2022-10-03T05:09:51;12.10;99.90
19085;DHT22;9675;51.538;6.728;2022-10-03T05:12:30;12.00;99.90
19085;DHT22;9675;51.538;6.728;2022-10-03T05:15:18;12.00;99.90
19085;DHT22;9675;51.538;6.728;2022-10-03T05:17:59;11.90;99.90
19085;DHT22;9675;51.538;6.728;2022-10-03T05:20:48;11.90;99.90
19085;DHT22;9675;51.538;6.728;2022-10-03T05:23:31;11.90;99.90
19085;DHT22;9675;51.538;6.728;2022-10-03T05:26:12;11.90;99.90
19085;DHT22;9675;51.538;6.728;2022-10-03T05:28:52;11.90;99.90
19085;DHT22;9675;51.538;6.728;2022-10-03T05:31:41;11.90;99.90
19085;DHT22;9675;51.538;6.728;2022-10-03T05:34:24;11.90;99.90
19085;DHT22;9675;51.538;6.728;2022-10-03T05:37:22;11.90;99.90
19085;DHT22;9675;51.538;6.728;2022-10-03T05:40:02;11.90;99.90
19085;DHT22;9675;51.538;6.728;2022-10-03T05:42:56;11.90;99.90
19085;DHT22;9675;51.538;6.728;2022-10-03T05:45:30;11.80;99.90
19085;DHT22;9675;51.538;6.728;2022-10-03T05:48:27;11.80;99.90
19085;DHT22;9675;51.538;6.728;2022-10-03T05:51:29;11.80;99.90
19085;DHT22;9675;51.538;6.728;2022-10-03T05:54:41;11.90;99.90
19085;DHT22;9675;51.538;6.728;2022-10-03T05:57:37;11.80;99.90
19085;DHT22;9675;51.538;6.728;2022-10-03T06:00:39;11.80;99.90
19085;DHT22;9675;51.538;6.728;2022-10-03T06:06:33;11.80;99.90
19085;DHT22;9675;51.538;6.728;2022-10-03T06:09:38;11.80;99.90
19085;DHT22;9675;51.538;6.728;2022-10-03T06:12:29;11.80;99.90
19085;DHT22;9675;51.538;6.728;2022-10-03T06:15:31;11.80;99.90
19085;DHT22;9675;51.538;6.728;2022-10-03T06:18:32;11.80;99.90
19085;DHT22;9675;51.538;6.728;2022-10-03T06:32:13;11.80;99.90
19085;DHT22;9675;51.538;6.728;2022-10-03T06:35:19;11.80;99.90
19085;DHT22;9675;51.538;6.728;2022-10-03T06:45:12;11.90;99.90
19085;DHT22;9675;51.538;6.728;2022-10-03T06:48:06;11.80;99.90
19085;DHT22;9675;51.538;6.728;2022-10-03T06:51:13;11.80;99.90
19085;DHT22;9675;51.538;6.728;2022-10-03T06:54:15;11.80;99.90
19085;DHT22;9675;51.538;6.728;2022-10-03T06:57:30;11.90;99.90
19085;DHT22;9675;51.538;6.728;2022-10-03T07:00:16;11.90;99.90
19085;DHT22;9675;51.538;6.728;2022-10-03T07:03:13;11.90;99.90
19085;DHT22;9675;51.538;6.728;2022-10-03T07:06:27;11.90;99.90
19085;DHT22;9675;51.538;6.728;2022-10-03T07:13:07;11.90;99.90
19085;DHT22;9675;51.538;6.728;2022-10-03T07:16:09;11.90;99.90
19085;DHT22;9675;51.538;6.728;2022-10-03T07:29:33;11.90;99.90
19085;DHT22;9675;51.538;6.728;2022-10-03T07:35:43;11.80;99.90
19085;DHT22;9675;51.538;6.728;2022-10-03T07:42:30;11.90;99.90
19085;DHT22;9675;51.538;6.728;2022-10-03T07:45:29;11.90;99.90
19085;DHT22;9675;51.538;6.728;2022-10-03T07:48:34;11.90;99.90
19085;DHT22;9675;51.538;6.728;2022-10-03T07:51:31;12.00;99.90
19085;DHT22;9675;51.538;6.728;2022-10-03T07:54:37;11.90;99.90
19085;DHT22;9675;51.538;6.728;2022-10-03T07:57:48;11.90;99.90
19085;DHT22;9675;51.538;6.728;2022-10-03T08:00:44;11.90;99.90
19085;DHT22;9675;51.538;6.728;2022-10-03T08:04:00;11.90;99.90
19085;DHT22;9675;51.538;6.728;2022-10-03T08:06:50;11.90;99.90
19085;DHT22;9675;51.538;6.728;2022-10-03T08:09:46;12.00;99.90
19085;DHT22;9675;51.538;6.728;2022-10-03T08:12:44;12.00;99.90
19085;DHT22;9675;51.538;6.728;2022-10-03T08:15:48;12.00;99.90
19085;DHT22;9675;51.538;6.728;2022-10-03T08:18:43;12.10;99.90
19085;DHT22;9675;51.538;6.728;2022-10-03T08:21:46;12.10;99.90
19085;DHT22;9675;51.538;6.728;2022-10-03T08:25:07;12.20;99.90
19085;DHT22;9675;51.538;6.728;2022-10-03T08:28:03;12.30;99.90
19085;DHT22;9675;51.538;6.728;2022-10-03T08:31:03;12.30;99.90
19085;DHT22;9675;51.538;6.728;2022-10-03T08:33:55;12.40;99.90
19085;DHT22;9675;51.538;6.728;2022-10-03T08:37:06;12.50;99.90
19085;DHT22;9675;51.538;6.728;2022-10-03T08:40:03;12.50;99.90
19085;DHT22;9675;51.538;6.728;2022-10-03T08:43:24;12.60;99.90
19085;DHT22;9675;51.538;6.728;2022-10-03T08:50:14;12.70;99.90
19085;DHT22;9675;51.538;6.728;2022-10-03T08:53:31;12.80;99.90
19085;DHT22;9675;51.538;6.728;2022-10-03T08:56:39;12.90;99.90
19085;DHT22;9675;51.538;6.728;2022-10-03T09:03:19;13.00;99.90
19085;DHT22;9675;51.538;6.728;2022-10-03T09:06:47;13.10;99.90
19085;DHT22;9675;51.538;6.728;2022-10-03T09:16:11;13.40;99.90
19085;DHT22;9675;51.538;6.728;2022-10-03T09:19:12;13.50;99.90
19085;DHT22;9675;51.538;6.728;2022-10-03T09:22:21;13.60;99.90
19085;DHT22;9675;51.538;6.728;2022-10-03T09:25:38;13.70;99.90
19085;DHT22;9675;51.538;6.728;2022-10-03T09:32:02;13.90;99.90
19085;DHT22;9675;51.538;6.728;2022-10-03T09:35:44;14.00;99.90
19085;DHT22;9675;51.538;6.728;2022-10-03T09:38:45;14.20;99.90
19085;DHT22;9675;51.538;6.728;2022-10-03T09:42:18;14.30;99.90
19085;DHT22;9675;51.538;6.728;2022-10-03T09:48:51;14.50;99.90
19085;DHT22;9675;51.538;6.728;2022-10-03T09:51:45;14.60;99.90
19085;DHT22;9675;51.538;6.728;2022-10-03T09:58:07;14.80;99.90
19085;DHT22;9675;51.538;6.728;2022-10-03T10:01:10;14.90;99.90
19085;DHT22;9675;51.538;6.728;2022-10-03T10:04:19;15.00;99.90
19085;DHT22;9675;51.538;6.728;2022-10-03T10:10:53;15.30;99.90
19085;DHT22;9675;51.538;6.728;2022-10-03T10:14:10;15.40;99.90
19085;DHT22;9675;51.538;6.728;2022-10-03T10:20:31;15.60;99.90
19085;DHT22;9675;51.538;6.728;2022-10-03T10:23:32;15.70;99.90
19085;DHT22;9675;51.538;6.728;2022-10-03T10:30:13;15.90;99.90
19085;DHT22;9675;51.538;6.728;2022-10-03T10:33:22;16.10;99.90
19085;DHT22;9675;51.538;6.728;2022-10-03T10:36:44;16.10;99.90
19085;DHT22;9675;51.538;6.728;2022-10-03T10:39:52;16.20;99.90
19085;DHT22;9675;51.538;6.728;2022-10-03T10:43:26;16.40;99.90
19085;DHT22;9675;51.538;6.728;2022-10-03T10:57:13;16.80;99.90
19085;DHT22;9675;51.538;6.728;2022-10-03T11:00:13;16.90;99.90
19085;DHT22;9675;51.538;6.728;2022-10-03T11:06:56;17.10;99.90
19085;DHT22;9675;51.538;6.728;2022-10-03T11:10:28;17.20;99.90
19085;DHT22;9675;51.538;6.728;2022-10-03T11:23:39;17.50;99.90
19085;DHT22;9675;51.538;6.728;2022-10-03T11:33:16;17.90;99.90
19085;DHT22;9675;51.538;6.728;2022-10-03T11:36:43;17.90;99.90
19085;DHT22;9675;51.538;6.728;2022-10-03T11:39:31;18.00;99.90
19085;DHT22;9675;51.538;6.728;2022-10-03T11:42:19;18.10;99.90
19085;DHT22;9675;51.538;6.728;2022-10-03T11:44:56;18.10;99.90
19085;DHT22;9675;51.538;6.728;2022-10-03T11:47:41;18.20;99.90
19085;DHT22;9675;51.538;6.728;2022-10-03T11:50:39;18.30;99.90
19085;DHT22;9675;51.538;6.728;2022-10-03T11:53:36;18.30;99.90
19085;DHT22;9675;51.538;6.728;2022-10-03T11:56:41;18.40;99.90
19085;DHT22;9675;51.538;6.728;2022-10-03T11:59:37;18.40;99.90
19085;DHT22;9675;51.538;6.728;2022-10-03T12:02:33;18.40;99.90
19085;DHT22;9675;51.538;6.728;2022-10-03T12:05:20;18.50;99.90
19085;DHT22;9675;51.538;6.728;2022-10-03T12:08:02;18.60;99.90
19085;DHT22;9675;51.538;6.728;2022-10-03T12:11:05;18.70;99.90
19085;DHT22;9675;51.538;6.728;2022-10-03T12:13:44;18.70;99.90
19085;DHT22;9675;51.538;6.728;2022-10-03T12:16:24;18.80;99.90
19085;DHT22;9675;51.538;6.728;2022-10-03T12:19:00;18.90;99.90
19085;DHT22;9675;51.538;6.728;2022-10-03T12:21:44;18.90;99.90
19085;DHT22;9675;51.538;6.728;2022-10-03T12:24:24;19.00;99.90
19085;DHT22;9675;51.538;6.728;2022-10-03T12:27:00;19.10;99.90
19085;DHT22;9675;51.538;6.728;2022-10-03T12:29:39;19.10;99.90
19085;DHT22;9675;51.538;6.728;2022-10-03T12:32:28;19.30;99.90
19085;DHT22;9675;51.538;6.728;2022-10-03T12:35:14;19.50;99.90
19085;DHT22;9675;51.538;6.728;2022-10-03T12:38:05;20.00;99.90
19085;DHT22;9675;51.538;6.728;2022-10-03T12:40:55;20.50;99.90
19085;DHT22;9675;51.538;6.728;2022-10-03T12:43:47;20.90;99.90
19085;DHT22;9675;51.538;6.728;2022-10-03T12:46:35;21.30;99.90
19085;DHT22;9675;51.538;6.728;2022-10-03T12:49:14;21.60;99.90
19085;DHT22;9675;51.538;6.728;2022-10-03T12:51:53;21.70;99.90
19085;DHT22;9675;51.538;6.728;2022-10-03T12:54:35;22.00;99.90
19085;DHT22;9675;51.538;6.728;2022-10-03T13:00:22;22.30;99.90
19085;DHT22;9675;51.538;6.728;2022-10-03T13:09:23;22.80;99.90
19085;DHT22;9675;51.538;6.728;2022-10-03T13:12:02;22.90;99.90
19085;DHT22;9675;51.538;6.728;2022-10-03T13:18:15;23.00;99.90
19085;DHT22;9675;51.538;6.728;2022-10-03T13:21:05;23.10;99.90
19085;DHT22;9675;51.538;6.728;2022-10-03T13:23:44;23.10;99.90
19085;DHT22;9675;51.538;6.728;2022-10-03T13:26:19;23.20;99.90
19085;DHT22;9675;51.538;6.728;2022-10-03T13:29:12;23.20;99.90
19085;DHT22;9675;51.538;6.728;2022-10-03T13:32:00;23.20;99.90
19085;DHT22;9675;51.538;6.728;2022-10-03T13:35:07;23.30;99.90
19085;DHT22;9675;51.538;6.728;2022-10-03T13:38:28;23.30;99.90
19085;DHT22;9675;51.538;6.728;2022-10-03T13:41:18;23.40;99.90
19085;DHT22;9675;51.538;6.728;2022-10-03T13:43:57;23.40;99.90
19085;DHT22;9675;51.538;6.728;2022-10-03T13:46:32;23.40;99.90
19085;DHT22;9675;51.538;6.728;2022-10-03T13:49:13;23.40;99.90
19085;DHT22;9675;51.538;6.728;2022-10-03T13:51:50;23.40;99.90
19085;DHT22;9675;51.538;6.728;2022-10-03T13:54:56;23.40;99.90
19085;DHT22;9675;51.538;6.728;2022-10-03T13:57:41;23.40;99.90
19085;DHT22;9675;51.538;6.728;2022-10-03T14:00:15;23.40;99.90
19085;DHT22;9675;51.538;6.728;2022-10-03T14:03:07;23.40;99.90
19085;DHT22;9675;51.538;6.728;2022-10-03T14:06:09;23.40;99.90
19085;DHT22;9675;51.538;6.728;2022-10-03T14:09:25;23.50;99.90
19085;DHT22;9675;51.538;6.728;2022-10-03T14:12:11;23.50;99.90
19085;DHT22;9675;51.538;6.728;2022-10-03T14:17:58;23.60;99.90
19085;DHT22;9675;51.538;6.728;2022-10-03T14:20:34;23.60;99.90
19085;DHT22;9675;51.538;6.728;2022-10-03T14:23:27;23.60;99.90
19085;DHT22;9675;51.538;6.728;2022-10-03T14:26:06;23.60;99.90
19085;DHT22;9675;51.538;6.728;2022-10-03T14:28:46;23.60;99.90
19085;DHT22;9675;51.538;6.728;2022-10-03T14:31:25;23.50;99.90
19085;DHT22;9675;51.538;6.728;2022-10-03T14:34:03;23.50;99.90
19085;DHT22;9675;51.538;6.728;2022-10-03T14:36:45;23.50;99.90
19085;DHT22;9675;51.538;6.728;2022-10-03T14:39:30;23.50;99.90
19085;DHT22;9675;51.538;6.728;2022-10-03T14:45:23;23.40;99.90
19085;DHT22;9675;51.538;6.728;2022-10-03T14:47:58;23.40;99.90
19085;DHT22;9675;51.538;6.728;2022-10-03T14:50:32;23.40;99.90
19085;DHT22;9675;51.538;6.728;2022-10-03T14:53:06;23.30;99.90
19085;DHT22;9675;51.538;6.728;2022-10-03T14:55:44;23.30;99.90
19085;DHT22;9675;51.538;6.728;2022-10-03T14:58:22;23.30;99.90
19085;DHT22;9675;51.538;6.728;2022-10-03T15:01:01;23.20;99.90
19085;DHT22;9675;51.538;6.728;2022-10-03T15:03:37;23.20;99.90
19085;DHT22;9675;51.538;6.728;2022-10-03T15:06:32;23.20;99.90
19085;DHT22;9675;51.538;6.728;2022-10-03T15:09:07;23.20;99.90
19085;DHT22;9675;51.538;6.728;2022-10-03T15:11:44;23.20;99.90
19085;DHT22;9675;51.538;6.728;2022-10-03T15:14:14;23.10;99.90
19085;DHT22;9675;51.538;6.728;2022-10-03T15:16:45;23.10;99.90
19085;DHT22;9675;51.538;6.728;2022-10-03T15:19:19;23.10;99.90
19085;DHT22;9675;51.538;6.728;2022-10-03T15:21:53;23.00;99.90
19085;DHT22;9675;51.538;6.728;2022-10-03T15:24:27;23.00;99.90
19085;DHT22;9675;51.538;6.728;2022-10-03T15:27:02;23.00;99.90
19085;DHT22;9675;51.538;6.728;2022-10-03T15:29:34;23.00;99.90
19085;DHT22;9675;51.538;6.728;2022-10-03T15:32:09;23.00;99.90
19085;DHT22;9675;51.538;6.728;2022-10-03T15:34:49;22.90;99.90
19085;DHT22;9675;51.538;6.728;2022-10-03T15:37:23;22.90;99.90
19085;DHT22;9675;51.538;6.728;2022-10-03T15:39:58;22.80;99.90
19085;DHT22;9675;51.538;6.728;2022-10-03T15:42:30;22.80;99.90
19085;DHT22;9675;51.538;6.728;2022-10-03T15:45:17;22.80;99.90
19085;DHT22;9675;51.538;6.728;2022-10-03T15:47:48;22.70;99.90
19085;DHT22;9675;51.538;6.728;2022-10-03T15:50:21;22.70;99.90
19085;DHT22;9675;51.538;6.728;2022-10-03T15:52:53;22.70;99.90
19085;DHT22;9675;51.538;6.728;2022-10-03T15:55:24;22.60;99.90
19085;DHT22;9675;51.538;6.728;2022-10-03T15:57:59;22.60;99.90
19085;DHT22;9675;51.538;6.728;2022-10-03T16:00:34;22.60;99.90
19085;DHT22;9675;51.538;6.728;2022-10-03T16:03:11;22.60;99.90
19085;DHT22;9675;51.538;6.728;2022-10-03T16:05:55;22.50;99.90
19085;DHT22;9675;51.538;6.728;2022-10-03T16:08:32;22.50;99.90
19085;DHT22;9675;51.538;6.728;2022-10-03T16:11:10;22.40;99.90
19085;DHT22;9675;51.538;6.728;2022-10-03T16:13:43;22.40;99.90
19085;DHT22;9675;51.538;6.728;2022-10-03T16:16:18;22.40;99.90
19085;DHT22;9675;51.538;6.728;2022-10-03T16:19:01;22.40;99.90
19085;DHT22;9675;51.538;6.728;2022-10-03T16:21:49;22.30;99.90
19085;DHT22;9675;51.538;6.728;2022-10-03T16:24:30;22.30;99.90
19085;DHT22;9675;51.538;6.728;2022-10-03T16:27:09;22.30;99.90
19085;DHT22;9675;51.538;6.728;2022-10-03T16:29:45;22.20;99.90
19085;DHT22;9675;51.538;6.728;2022-10-03T16:32:22;22.20;99.90
19085;DHT22;9675;51.538;6.728;2022-10-03T16:34:53;22.20;99.90
19085;DHT22;9675;51.538;6.728;2022-10-03T16:37:27;22.10;99.90
19085;DHT22;9675;51.538;6.728;2022-10-03T16:39:58;22.10;99.90
19085;DHT22;9675;51.538;6.728;2022-10-03T16:42:38;22.00;99.90
19085;DHT22;9675;51.538;6.728;2022-10-03T16:45:20;22.00;99.90
19085;DHT22;9675;51.538;6.728;2022-10-03T16:47:53;22.00;99.90
19085;DHT22;9675;51.538;6.728;2022-10-03T16:50:43;22.00;99.90
19085;DHT22;9675;51.538;6.728;2022-10-03T16:53:16;21.90;99.90
19085;DHT22;9675;51.538;6.728;2022-10-03T16:55:48;21.90;99.90
19085;DHT22;9675;51.538;6.728;2022-10-03T16:58:21;21.80;99.90
19085;DHT22;9675;51.538;6.728;2022-10-03T17:00:56;21.80;99.90
19085;DHT22;9675;51.538;6.728;2022-10-03T17:03:30;21.80;99.90
19085;DHT22;9675;51.538;6.728;2022-10-03T17:06:04;21.70;99.90
19085;DHT22;9675;51.538;6.728;2022-10-03T17:08:41;21.70;99.90
19085;DHT22;9675;51.538;6.728;2022-10-03T17:11:15;21.70;99.90
19085;DHT22;9675;51.538;6.728;2022-10-03T17:13:47;21.60;99.90
19085;DHT22;9675;51.538;6.728;2022-10-03T17:16:26;21.60;99.90
19085;DHT22;9675;51.538;6.728;2022-10-03T17:19:15;21.60;99.90
19085;DHT22;9675;51.538;6.728;2022-10-03T17:21:50;21.50;99.90
19085;DHT22;9675;51.538;6.728;2022-10-03T17:24:32;21.50;99.90
19085;DHT22;9675;51.538;6.728;2022-10-03T17:27:11;21.40;99.90
19085;DHT22;9675;51.538;6.728;2022-10-03T17:29:49;21.40;99.90
19085;DHT22;9675;51.538;6.728;2022-10-03T17:32:26;21.30;99.90
19085;DHT22;9675;51.538;6.728;2022-10-03T17:35:03;21.30;99.90
19085;DHT22;9675;51.538;6.728;2022-10-03T17:38:09;21.30;99.90
19085;DHT22;9675;51.538;6.728;2022-10-03T17:40:55;21.20;99.90
19085;DHT22;9675;51.538;6.728;2022-10-03T17:43:41;21.20;99.90
19085;DHT22;9675;51.538;6.728;2022-10-03T17:46:16;21.10;99.90
19085;DHT22;9675;51.538;6.728;2022-10-03T17:48:54;21.00;99.90
19085;DHT22;9675;51.538;6.728;2022-10-03T17:51:34;21.00;99.90
19085;DHT22;9675;51.538;6.728;2022-10-03T17:54:09;21.00;99.90
19085;DHT22;9675;51.538;6.728;2022-10-03T17:56:44;20.90;99.90
19085;DHT22;9675;51.538;6.728;2022-10-03T17:59:22;20.80;99.90
19085;DHT22;9675;51.538;6.728;2022-10-03T18:01:55;20.80;99.90
19085;DHT22;9675;51.538;6.728;2022-10-03T18:04:31;20.80;99.90
19085;DHT22;9675;51.538;6.728;2022-10-03T18:07:09;20.70;99.90
19085;DHT22;9675;51.538;6.728;2022-10-03T18:09:44;20.70;99.90
19085;DHT22;9675;51.538;6.728;2022-10-03T18:12:22;20.60;99.90
19085;DHT22;9675;51.538;6.728;2022-10-03T18:15:17;20.60;99.90
19085;DHT22;9675;51.538;6.728;2022-10-03T18:24:53;20.40;99.90
19085;DHT22;9675;51.538;6.728;2022-10-03T18:27:48;20.40;99.90
19085;DHT22;9675;51.538;6.728;2022-10-03T18:30:33;20.30;99.90
19085;DHT22;9675;51.538;6.728;2022-10-03T18:33:12;20.20;99.90
19085;DHT22;9675;51.538;6.728;2022-10-03T18:35:44;20.20;99.90
19085;DHT22;9675;51.538;6.728;2022-10-03T18:38:17;20.20;99.90
19085;DHT22;9675;51.538;6.728;2022-10-03T18:40:52;20.10;99.90
19085;DHT22;9675;51.538;6.728;2022-10-03T18:43:26;20.10;99.90
19085;DHT22;9675;51.538;6.728;2022-10-03T18:46:08;20.00;99.90
19085;DHT22;9675;51.538;6.728;2022-10-03T18:48:50;20.00;99.90
19085;DHT22;9675;51.538;6.728;2022-10-03T18:51:28;19.90;99.90
19085;DHT22;9675;51.538;6.728;2022-10-03T18:54:03;19.90;99.90
19085;DHT22;9675;51.538;6.728;2022-10-03T18:56:35;19.80;99.90
19085;DHT22;9675;51.538;6.728;2022-10-03T18:59:14;19.80;99.90
19085;DHT22;9675;51.538;6.728;2022-10-03T19:01:51;19.80;99.90
19085;DHT22;9675;51.538;6.728;2022-10-03T19:04:34;19.70;99.90
19085;DHT22;9675;51.538;6.728;2022-10-03T19:07:14;19.70;99.90
19085;DHT22;9675;51.538;6.728;2022-10-03T19:10:17;19.60;99.90
19085;DHT22;9675;51.538;6.728;2022-10-03T19:12:58;19.70;99.90
19085;DHT22;9675;51.538;6.728;2022-10-03T19:15:39;19.60;99.90
19085;DHT22;9675;51.538;6.728;2022-10-03T19:18:23;19.50;99.90
19085;DHT22;9675;51.538;6.728;2022-10-03T19:20:54;19.50;99.90
19085;DHT22;9675;51.538;6.728;2022-10-03T19:23:27;19.50;99.90
19085;DHT22;9675;51.538;6.728;2022-10-03T19:26:03;19.40;99.90
19085;DHT22;9675;51.538;6.728;2022-10-03T19:28:37;19.40;99.90
19085;DHT22;9675;51.538;6.728;2022-10-03T19:31:15;19.30;99.90
19085;DHT22;9675;51.538;6.728;2022-10-03T19:33:50;19.30;99.90
19085;DHT22;9675;51.538;6.728;2022-10-03T19:36:23;19.30;99.90
19085;DHT22;9675;51.538;6.728;2022-10-03T19:38:55;19.20;99.90
19085;DHT22;9675;51.538;6.728;2022-10-03T19:41:29;19.20;99.90
19085;DHT22;9675;51.538;6.728;2022-10-03T19:44:04;19.20;99.90
19085;DHT22;9675;51.538;6.728;2022-10-03T19:46:51;19.10;99.90
19085;DHT22;9675;51.538;6.728;2022-10-03T19:49:29;19.10;99.90
19085;DHT22;9675;51.538;6.728;2022-10-03T19:52:12;19.00;99.90
19085;DHT22;9675;51.538;6.728;2022-10-03T19:54:48;19.00;99.90
19085;DHT22;9675;51.538;6.728;2022-10-03T19:57:20;19.00;99.90
19085;DHT22;9675;51.538;6.728;2022-10-03T19:59:54;18.90;99.90
19085;DHT22;9675;51.538;6.728;2022-10-03T20:02:26;18.90;99.90
19085;DHT22;9675;51.538;6.728;2022-10-03T20:04:56;18.90;99.90
19085;DHT22;9675;51.538;6.728;2022-10-03T20:07:44;18.80;99.90
19085;DHT22;9675;51.538;6.728;2022-10-03T20:10:44;18.80;99.90
19085;DHT22;9675;51.538;6.728;2022-10-03T20:13:16;18.70;99.90
19085;DHT22;9675;51.538;6.728;2022-10-03T20:15:45;18.70;99.90
19085;DHT22;9675;51.538;6.728;2022-10-03T20:18:20;18.60;99.90
19085;DHT22;9675;51.538;6.728;2022-10-03T20:20:51;18.60;99.90
19085;DHT22;9675;51.538;6.728;2022-10-03T20:23:22;18.60;99.90
19085;DHT22;9675;51.538;6.728;2022-10-03T20:25:55;18.50;99.90
19085;DHT22;9675;51.538;6.728;2022-10-03T20:28:38;18.50;99.90
19085;DHT22;9675;51.538;6.728;2022-10-03T20:31:23;18.40;99.90
19085;DHT22;9675;51.538;6.728;2022-10-03T20:33:53;18.40;99.90
19085;DHT22;9675;51.538;6.728;2022-10-03T20:36:27;18.40;99.90
19085;DHT22;9675;51.538;6.728;2022-10-03T20:39:06;18.30;99.90
19085;DHT22;9675;51.538;6.728;2022-10-03T20:41:52;18.30;99.90